sensor_id;sensor_type;location;lat;lon;timestamp;P1;durP1;ratioP1;P2;durP2;ratioP2
36457;SDS011;22480;50.546;12.292;2023-05-07T00:00:02;86.55;;;45.83;;
36457;SDS011;22480;50.546;12.292;2023-05-07T00:02:33;87.45;;;46.50;;
36457;SDS011;22480;50.546;12.292;2023-05-07T00:04:59;88.70;;;46.72;;
36457;SDS011;22480;50.546;12.292;2023-05-07T00:07:25;80.80;;;44.45;;
36457;SDS011;22480;50.546;12.292;2023-05-07T00:09:50;84.50;;;45.00;;
36457;SDS011;22480;50.546;12.292;2023-05-07T00:12:16;78.18;;;44.20;;
36457;SDS011;22480;50.546;12.292;2023-05-07T00:14:42;82.13;;;43.97;;
36457;SDS011;22480;50.546;12.292;2023-05-07T00:17:07;79.53;;;42.90;;
36457;SDS011;22480;50.546;12.292;2023-05-07T00:19:33;79.80;;;42.95;;
36457;SDS011;22480;50.546;12.292;2023-05-07T00:21:59;81.80;;;43.03;;
36457;SDS011;22480;50.546;12.292;2023-05-07T00:24:24;73.97;;;41.60;;
36457;SDS011;22480;50.546;12.292;2023-05-07T00:26:50;77.30;;;43.58;;
36457;SDS011;22480;50.546;12.292;2023-05-07T00:29:17;75.97;;;43.00;;
36457;SDS011;22480;50.546;12.292;2023-05-07T00:31:43;78.15;;;42.63;;
36457;SDS011;22480;50.546;12.292;2023-05-07T00:34:09;77.90;;;41.70;;
36457;SDS011;22480;50.546;12.292;2023-05-07T00:36:35;77.75;;;41.42;;
36457;SDS011;22480;50.546;12.292;2023-05-07T00:39:00;71.53;;;40.90;;
36457;SDS011;22480;50.546;12.292;2023-05-07T00:41:28;80.72;;;42.55;;
36457;SDS011;22480;50.546;12.292;2023-05-07T00:43:55;70.97;;;38.22;;
36457;SDS011;22480;50.546;12.292;2023-05-07T00:46:21;74.80;;;39.83;;
36457;SDS011;22480;50.546;12.292;2023-05-07T00:48:49;75.20;;;41.03;;
36457;SDS011;22480;50.546;12.292;2023-05-07T00:51:16;74.70;;;41.38;;
36457;SDS011;22480;50.546;12.292;2023-05-07T00:53:42;81.55;;;42.00;;
36457;SDS011;22480;50.546;12.292;2023-05-07T00:56:08;76.55;;;41.47;;
36457;SDS011;22480;50.546;12.292;2023-05-07T00:58:35;77.72;;;40.97;;
36457;SDS011;22480;50.546;12.292;2023-05-07T01:01:01;82.28;;;42.40;;
36457;SDS011;22480;50.546;12.292;2023-05-07T01:03:27;94.20;;;46.33;;
36457;SDS011;22480;50.546;12.292;2023-05-07T01:05:53;93.72;;;45.88;;
36457;SDS011;22480;50.546;12.292;2023-05-07T01:08:20;93.70;;;46.03;;
36457;SDS011;22480;50.546;12.292;2023-05-07T01:10:47;93.03;;;47.67;;
36457;SDS011;22480;50.546;12.292;2023-05-07T01:13:14;99.55;;;48.45;;
36457;SDS011;22480;50.546;12.292;2023-05-07T01:15:40;99.65;;;48.10;;
36457;SDS011;22480;50.546;12.292;2023-05-07T01:18:06;104.85;;;48.33;;
36457;SDS011;22480;50.546;12.292;2023-05-07T01:20:34;94.82;;;47.83;;
36457;SDS011;22480;50.546;12.292;2023-05-07T01:23:00;102.05;;;48.88;;
36457;SDS011;22480;50.546;12.292;2023-05-07T01:25:28;110.35;;;48.40;;
36457;SDS011;22480;50.546;12.292;2023-05-07T01:27:57;99.88;;;47.40;;
36457;SDS011;22480;50.546;12.292;2023-05-07T01:30:28;102.32;;;48.92;;
36457;SDS011;22480;50.546;12.292;2023-05-07T01:33:02;109.10;;;49.28;;
36457;SDS011;22480;50.546;12.292;2023-05-07T01:35:36;110.93;;;50.40;;
36457;SDS011;22480;50.546;12.292;2023-05-07T01:38:06;110.10;;;48.80;;
36457;SDS011;22480;50.546;12.292;2023-05-07T01:40:33;95.30;;;45.45;;
36457;SDS011;22480;50.546;12.292;2023-05-07T01:43:02;101.25;;;47.10;;
36457;SDS011;22480;50.546;12.292;2023-05-07T01:45:30;99.70;;;47.05;;
36457;SDS011;22480;50.546;12.292;2023-05-07T01:47:57;101.15;;;47.15;;
36457;SDS011;22480;50.546;12.292;2023-05-07T01:50:24;100.63;;;47.38;;
36457;SDS011;22480;50.546;12.292;2023-05-07T01:52:51;103.03;;;49.60;;
36457;SDS011;22480;50.546;12.292;2023-05-07T01:55:16;94.60;;;44.55;;
36457;SDS011;22480;50.546;12.292;2023-05-07T01:57:42;95.55;;;44.88;;
36457;SDS011;22480;50.546;12.292;2023-05-07T02:00:08;90.80;;;45.83;;
36457;SDS011;22480;50.546;12.292;2023-05-07T02:02:40;90.15;;;45.13;;
36457;SDS011;22480;50.546;12.292;2023-05-07T02:05:13;89.93;;;43.70;;
36457;SDS011;22480;50.546;12.292;2023-05-07T02:07:42;86.22;;;44.42;;
36457;SDS011;22480;50.546;12.292;2023-05-07T02:10:08;91.03;;;43.55;;
36457;SDS011;22480;50.546;12.292;2023-05-07T02:12:34;90.78;;;44.70;;
36457;SDS011;22480;50.546;12.292;2023-05-07T02:14:59;84.75;;;42.95;;
36457;SDS011;22480;50.546;12.292;2023-05-07T02:17:25;84.35;;;41.35;;
36457;SDS011;22480;50.546;12.292;2023-05-07T02:19:51;84.57;;;42.88;;
36457;SDS011;22480;50.546;12.292;2023-05-07T02:22:16;80.65;;;43.03;;
36457;SDS011;22480;50.546;12.292;2023-05-07T02:24:42;84.60;;;43.72;;
36457;SDS011;22480;50.546;12.292;2023-05-07T02:27:08;77.80;;;40.90;;
36457;SDS011;22480;50.546;12.292;2023-05-07T02:29:34;81.80;;;39.28;;
36457;SDS011;22480;50.546;12.292;2023-05-07T02:32:00;84.03;;;41.63;;
36457;SDS011;22480;50.546;12.292;2023-05-07T02:34:26;82.70;;;40.28;;
36457;SDS011;22480;50.546;12.292;2023-05-07T02:36:51;81.47;;;40.78;;
36457;SDS011;22480;50.546;12.292;2023-05-07T02:39:21;80.40;;;40.60;;
36457;SDS011;22480;50.546;12.292;2023-05-07T02:41:47;79.90;;;41.10;;
36457;SDS011;22480;50.546;12.292;2023-05-07T02:44:12;75.82;;;39.05;;
36457;SDS011;22480;50.546;12.292;2023-05-07T02:46:38;78.57;;;40.08;;
36457;SDS011;22480;50.546;12.292;2023-05-07T02:49:08;75.60;;;37.88;;
36457;SDS011;22480;50.546;12.292;2023-05-07T02:51:34;77.53;;;39.33;;
36457;SDS011;22480;50.546;12.292;2023-05-07T02:54:02;71.35;;;37.17;;
36457;SDS011;22480;50.546;12.292;2023-05-07T02:56:30;76.07;;;37.97;;
36457;SDS011;22480;50.546;12.292;2023-05-07T02:58:55;75.97;;;38.78;;
36457;SDS011;22480;50.546;12.292;2023-05-07T03:01:24;78.70;;;38.92;;
36457;SDS011;22480;50.546;12.292;2023-05-07T03:03:57;73.50;;;36.35;;
36457;SDS011;22480;50.546;12.292;2023-05-07T03:06:22;73.28;;;36.42;;
36457;SDS011;22480;50.546;12.292;2023-05-07T03:08:48;75.72;;;39.28;;
36457;SDS011;22480;50.546;12.292;2023-05-07T03:11:14;78.50;;;37.83;;
36457;SDS011;22480;50.546;12.292;2023-05-07T03:13:40;73.60;;;35.38;;
36457;SDS011;22480;50.546;12.292;2023-05-07T03:16:06;71.15;;;36.67;;
36457;SDS011;22480;50.546;12.292;2023-05-07T03:18:32;71.18;;;34.85;;
36457;SDS011;22480;50.546;12.292;2023-05-07T03:20:57;69.28;;;37.38;;
36457;SDS011;22480;50.546;12.292;2023-05-07T03:23:23;68.95;;;36.22;;
36457;SDS011;22480;50.546;12.292;2023-05-07T03:25:49;71.40;;;37.90;;
36457;SDS011;22480;50.546;12.292;2023-05-07T03:28:15;72.72;;;37.00;;
36457;SDS011;22480;50.546;12.292;2023-05-07T03:30:47;72.07;;;37.53;;
36457;SDS011;22480;50.546;12.292;2023-05-07T03:33:12;66.82;;;35.75;;
36457;SDS011;22480;50.546;12.292;2023-05-07T03:35:39;62.35;;;33.83;;
36457;SDS011;22480;50.546;12.292;2023-05-07T03:38:04;63.47;;;34.78;;
36457;SDS011;22480;50.546;12.292;2023-05-07T03:40:33;64.03;;;33.13;;
36457;SDS011;22480;50.546;12.292;2023-05-07T03:43:00;62.20;;;33.53;;
36457;SDS011;22480;50.546;12.292;2023-05-07T03:45:28;58.42;;;31.77;;
36457;SDS011;22480;50.546;12.292;2023-05-07T03:48:05;70.90;;;35.08;;
36457;SDS011;22480;50.546;12.292;2023-05-07T03:50:30;65.07;;;35.33;;
36457;SDS011;22480;50.546;12.292;2023-05-07T03:52:56;65.03;;;34.10;;
36457;SDS011;22480;50.546;12.292;2023-05-07T03:55:22;61.20;;;33.28;;
36457;SDS011;22480;50.546;12.292;2023-05-07T04:00:19;63.92;;;31.63;;
36457;SDS011;22480;50.546;12.292;2023-05-07T04:02:46;53.15;;;28.65;;
36457;SDS011;22480;50.546;12.292;2023-05-07T04:05:13;56.28;;;30.30;;
36457;SDS011;22480;50.546;12.292;2023-05-07T04:07:41;52.83;;;29.60;;
36457;SDS011;22480;50.546;12.292;2023-05-07T04:10:08;57.60;;;28.80;;
36457;SDS011;22480;50.546;12.292;2023-05-07T04:12:37;51.22;;;27.75;;
36457;SDS011;22480;50.546;12.292;2023-05-07T04:15:05;52.08;;;28.15;;
36457;SDS011;22480;50.546;12.292;2023-05-07T04:17:32;53.92;;;29.45;;
36457;SDS011;22480;50.546;12.292;2023-05-07T04:19:59;50.08;;;28.10;;
36457;SDS011;22480;50.546;12.292;2023-05-07T04:22:25;47.53;;;27.83;;
36457;SDS011;22480;50.546;12.292;2023-05-07T04:24:52;50.15;;;27.38;;
36457;SDS011;22480;50.546;12.292;2023-05-07T04:27:18;46.33;;;27.45;;
36457;SDS011;22480;50.546;12.292;2023-05-07T04:29:44;45.58;;;26.50;;
36457;SDS011;22480;50.546;12.292;2023-05-07T04:32:13;45.63;;;27.50;;
36457;SDS011;22480;50.546;12.292;2023-05-07T04:34:39;41.53;;;25.85;;
36457;SDS011;22480;50.546;12.292;2023-05-07T04:37:05;41.65;;;25.35;;
36457;SDS011;22480;50.546;12.292;2023-05-07T04:39:32;42.75;;;24.65;;
36457;SDS011;22480;50.546;12.292;2023-05-07T04:42:00;41.78;;;24.20;;
36457;SDS011;22480;50.546;12.292;2023-05-07T04:44:26;41.63;;;25.30;;
36457;SDS011;22480;50.546;12.292;2023-05-07T04:46:53;39.65;;;25.25;;
36457;SDS011;22480;50.546;12.292;2023-05-07T04:49:19;38.67;;;23.73;;
36457;SDS011;22480;50.546;12.292;2023-05-07T04:51:44;37.83;;;24.75;;
36457;SDS011;22480;50.546;12.292;2023-05-07T04:54:13;42.63;;;26.27;;
36457;SDS011;22480;50.546;12.292;2023-05-07T04:56:39;41.88;;;24.33;;
36457;SDS011;22480;50.546;12.292;2023-05-07T04:59:04;36.25;;;23.33;;
36457;SDS011;22480;50.546;12.292;2023-05-07T05:01:31;36.90;;;23.35;;
36457;SDS011;22480;50.546;12.292;2023-05-07T05:03:57;35.92;;;22.25;;
36457;SDS011;22480;50.546;12.292;2023-05-07T05:06:24;32.72;;;21.98;;
36457;SDS011;22480;50.546;12.292;2023-05-07T05:08:50;37.47;;;24.45;;
36457;SDS011;22480;50.546;12.292;2023-05-07T05:11:16;38.25;;;22.98;;
36457;SDS011;22480;50.546;12.292;2023-05-07T05:13:42;32.38;;;21.85;;
36457;SDS011;22480;50.546;12.292;2023-05-07T05:16:13;33.55;;;21.17;;
36457;SDS011;22480;50.546;12.292;2023-05-07T05:18:39;32.30;;;21.13;;
36457;SDS011;22480;50.546;12.292;2023-05-07T05:21:06;31.67;;;21.13;;
36457;SDS011;22480;50.546;12.292;2023-05-07T05:23:32;29.27;;;20.05;;
36457;SDS011;22480;50.546;12.292;2023-05-07T05:25:58;32.75;;;20.88;;
36457;SDS011;22480;50.546;12.292;2023-05-07T05:28:26;29.48;;;20.85;;
36457;SDS011;22480;50.546;12.292;2023-05-07T05:30:53;32.28;;;20.83;;
36457;SDS011;22480;50.546;12.292;2023-05-07T05:33:20;29.13;;;19.75;;
36457;SDS011;22480;50.546;12.292;2023-05-07T05:35:45;27.80;;;19.02;;
36457;SDS011;22480;50.546;12.292;2023-05-07T05:38:12;26.42;;;18.52;;
36457;SDS011;22480;50.546;12.292;2023-05-07T05:40:39;27.98;;;18.95;;
36457;SDS011;22480;50.546;12.292;2023-05-07T05:43:05;28.00;;;17.75;;
36457;SDS011;22480;50.546;12.292;2023-05-07T05:45:31;24.90;;;18.08;;
36457;SDS011;22480;50.546;12.292;2023-05-07T05:47:57;25.85;;;18.65;;
36457;SDS011;22480;50.546;12.292;2023-05-07T05:50:23;25.15;;;18.25;;
36457;SDS011;22480;50.546;12.292;2023-05-07T05:52:49;23.70;;;18.13;;
36457;SDS011;22480;50.546;12.292;2023-05-07T05:55:16;25.77;;;18.10;;
36457;SDS011;22480;50.546;12.292;2023-05-07T05:57:42;26.70;;;18.55;;
36457;SDS011;22480;50.546;12.292;2023-05-07T06:00:08;26.13;;;18.98;;
36457;SDS011;22480;50.546;12.292;2023-05-07T06:02:43;26.08;;;17.55;;
36457;SDS011;22480;50.546;12.292;2023-05-07T06:05:11;23.80;;;17.05;;
36457;SDS011;22480;50.546;12.292;2023-05-07T06:07:38;20.98;;;16.17;;
36457;SDS011;22480;50.546;12.292;2023-05-07T06:10:03;22.52;;;16.60;;
36457;SDS011;22480;50.546;12.292;2023-05-07T06:12:32;22.00;;;16.27;;
36457;SDS011;22480;50.546;12.292;2023-05-07T06:14:58;21.73;;;16.52;;
36457;SDS011;22480;50.546;12.292;2023-05-07T06:17:23;21.58;;;15.52;;
36457;SDS011;22480;50.546;12.292;2023-05-07T06:19:49;23.20;;;16.13;;
36457;SDS011;22480;50.546;12.292;2023-05-07T06:22:18;23.48;;;16.17;;
36457;SDS011;22480;50.546;12.292;2023-05-07T06:24:44;21.20;;;15.65;;
36457;SDS011;22480;50.546;12.292;2023-05-07T06:27:10;20.08;;;15.32;;
36457;SDS011;22480;50.546;12.292;2023-05-07T06:29:36;22.17;;;14.93;;
36457;SDS011;22480;50.546;12.292;2023-05-07T06:32:12;21.67;;;15.23;;
36457;SDS011;22480;50.546;12.292;2023-05-07T06:34:41;20.67;;;14.38;;
36457;SDS011;22480;50.546;12.292;2023-05-07T06:37:07;20.25;;;13.73;;
36457;SDS011;22480;50.546;12.292;2023-05-07T06:39:52;19.40;;;13.05;;
36457;SDS011;22480;50.546;12.292;2023-05-07T06:42:18;17.90;;;14.20;;
36457;SDS011;22480;50.546;12.292;2023-05-07T06:44:47;17.35;;;12.45;;
36457;SDS011;22480;50.546;12.292;2023-05-07T06:47:15;17.80;;;13.45;;
36457;SDS011;22480;50.546;12.292;2023-05-07T06:49:41;15.05;;;12.52;;
36457;SDS011;22480;50.546;12.292;2023-05-07T06:52:07;14.48;;;12.23;;
36457;SDS011;22480;50.546;12.292;2023-05-07T06:54:32;17.92;;;14.05;;
36457;SDS011;22480;50.546;12.292;2023-05-07T06:56:59;17.90;;;12.85;;
36457;SDS011;22480;50.546;12.292;2023-05-07T06:59:26;17.23;;;13.35;;
36457;SDS011;22480;50.546;12.292;2023-05-07T07:01:54;17.92;;;13.80;;
36457;SDS011;22480;50.546;12.292;2023-05-07T07:04:20;17.42;;;13.68;;
36457;SDS011;22480;50.546;12.292;2023-05-07T07:06:54;17.77;;;12.85;;
36457;SDS011;22480;50.546;12.292;2023-05-07T07:09:20;17.38;;;13.77;;
36457;SDS011;22480;50.546;12.292;2023-05-07T07:11:45;17.48;;;14.00;;
36457;SDS011;22480;50.546;12.292;2023-05-07T07:14:11;19.02;;;14.85;;
36457;SDS011;22480;50.546;12.292;2023-05-07T07:16:44;18.13;;;14.25;;
36457;SDS011;22480;50.546;12.292;2023-05-07T07:19:12;16.45;;;13.85;;
36457;SDS011;22480;50.546;12.292;2023-05-07T07:21:41;19.33;;;14.75;;
36457;SDS011;22480;50.546;12.292;2023-05-07T07:24:08;16.17;;;13.25;;
36457;SDS011;22480;50.546;12.292;2023-05-07T07:26:34;16.85;;;13.82;;
36457;SDS011;22480;50.546;12.292;2023-05-07T07:29:00;17.77;;;13.13;;
36457;SDS011;22480;50.546;12.292;2023-05-07T07:31:26;18.75;;;13.55;;
36457;SDS011;22480;50.546;12.292;2023-05-07T07:33:52;16.88;;;13.00;;
36457;SDS011;22480;50.546;12.292;2023-05-07T07:36:18;16.80;;;12.90;;
36457;SDS011;22480;50.546;12.292;2023-05-07T07:38:44;17.40;;;13.30;;
36457;SDS011;22480;50.546;12.292;2023-05-07T07:41:09;15.70;;;12.88;;
36457;SDS011;22480;50.546;12.292;2023-05-07T07:43:36;16.63;;;12.50;;
36457;SDS011;22480;50.546;12.292;2023-05-07T07:46:02;16.48;;;12.63;;
36457;SDS011;22480;50.546;12.292;2023-05-07T07:48:28;15.38;;;11.90;;
36457;SDS011;22480;50.546;12.292;2023-05-07T07:50:54;14.13;;;11.57;;
36457;SDS011;22480;50.546;12.292;2023-05-07T07:53:21;15.20;;;11.40;;
36457;SDS011;22480;50.546;12.292;2023-05-07T07:55:47;18.83;;;12.80;;
36457;SDS011;22480;50.546;12.292;2023-05-07T07:58:16;15.50;;;12.55;;
36457;SDS011;22480;50.546;12.292;2023-05-07T08:00:42;16.10;;;12.30;;
36457;SDS011;22480;50.546;12.292;2023-05-07T08:03:10;13.32;;;11.57;;
36457;SDS011;22480;50.546;12.292;2023-05-07T08:05:40;13.65;;;10.57;;
36457;SDS011;22480;50.546;12.292;2023-05-07T08:08:06;15.75;;;10.90;;
36457;SDS011;22480;50.546;12.292;2023-05-07T08:10:34;13.77;;;10.93;;
36457;SDS011;22480;50.546;12.292;2023-05-07T08:13:05;17.83;;;11.85;;
36457;SDS011;22480;50.546;12.292;2023-05-07T08:15:34;13.95;;;11.10;;
36457;SDS011;22480;50.546;12.292;2023-05-07T08:18:01;13.25;;;10.43;;
36457;SDS011;22480;50.546;12.292;2023-05-07T08:20:28;12.93;;;10.75;;
36457;SDS011;22480;50.546;12.292;2023-05-07T08:22:54;13.65;;;10.98;;
36457;SDS011;22480;50.546;12.292;2023-05-07T08:25:20;12.18;;;10.43;;
36457;SDS011;22480;50.546;12.292;2023-05-07T08:27:46;14.10;;;10.77;;
36457;SDS011;22480;50.546;12.292;2023-05-07T08:30:12;13.32;;;10.57;;
36457;SDS011;22480;50.546;12.292;2023-05-07T08:32:39;13.10;;;10.20;;
36457;SDS011;22480;50.546;12.292;2023-05-07T08:35:05;12.07;;;10.77;;
36457;SDS011;22480;50.546;12.292;2023-05-07T08:37:31;13.88;;;10.70;;
36457;SDS011;22480;50.546;12.292;2023-05-07T08:39:57;11.13;;;9.85;;
36457;SDS011;22480;50.546;12.292;2023-05-07T08:42:28;14.90;;;11.43;;
36457;SDS011;22480;50.546;12.292;2023-05-07T08:44:57;13.23;;;10.77;;
36457;SDS011;22480;50.546;12.292;2023-05-07T08:47:26;12.43;;;9.77;;
36457;SDS011;22480;50.546;12.292;2023-05-07T08:50:01;10.73;;;9.43;;
36457;SDS011;22480;50.546;12.292;2023-05-07T08:52:27;12.52;;;10.45;;
36457;SDS011;22480;50.546;12.292;2023-05-07T08:54:53;13.32;;;10.07;;
36457;SDS011;22480;50.546;12.292;2023-05-07T08:57:20;13.25;;;9.35;;
36457;SDS011;22480;50.546;12.292;2023-05-07T08:59:49;11.52;;;9.63;;
36457;SDS011;22480;50.546;12.292;2023-05-07T09:02:15;11.13;;;9.25;;
36457;SDS011;22480;50.546;12.292;2023-05-07T09:04:41;10.90;;;9.45;;
36457;SDS011;22480;50.546;12.292;2023-05-07T09:07:07;11.50;;;9.25;;
36457;SDS011;22480;50.546;12.292;2023-05-07T09:09:37;10.85;;;9.20;;
36457;SDS011;22480;50.546;12.292;2023-05-07T09:12:05;10.75;;;9.55;;
36457;SDS011;22480;50.546;12.292;2023-05-07T09:14:32;11.85;;;9.45;;
36457;SDS011;22480;50.546;12.292;2023-05-07T09:16:59;11.45;;;9.48;;
36457;SDS011;22480;50.546;12.292;2023-05-07T09:19:25;11.90;;;8.85;;
36457;SDS011;22480;50.546;12.292;2023-05-07T09:22:00;11.18;;;9.57;;
36457;SDS011;22480;50.546;12.292;2023-05-07T09:24:30;10.85;;;9.45;;
36457;SDS011;22480;50.546;12.292;2023-05-07T09:27:01;10.73;;;8.90;;
36457;SDS011;22480;50.546;12.292;2023-05-07T09:29:28;11.02;;;8.68;;
36457;SDS011;22480;50.546;12.292;2023-05-07T09:31:55;10.85;;;8.90;;
36457;SDS011;22480;50.546;12.292;2023-05-07T09:34:21;12.25;;;8.98;;
36457;SDS011;22480;50.546;12.292;2023-05-07T09:36:48;10.98;;;8.38;;
36457;SDS011;22480;50.546;12.292;2023-05-07T09:39:14;10.88;;;8.90;;
36457;SDS011;22480;50.546;12.292;2023-05-07T09:41:43;10.68;;;8.52;;
36457;SDS011;22480;50.546;12.292;2023-05-07T09:44:16;13.15;;;9.63;;
36457;SDS011;22480;50.546;12.292;2023-05-07T09:46:49;12.25;;;10.30;;
36457;SDS011;22480;50.546;12.292;2023-05-07T09:49:24;11.00;;;8.73;;
36457;SDS011;22480;50.546;12.292;2023-05-07T09:52:00;9.30;;;7.88;;
36457;SDS011;22480;50.546;12.292;2023-05-07T09:54:30;9.52;;;8.30;;
36457;SDS011;22480;50.546;12.292;2023-05-07T09:56:59;9.73;;;8.63;;
36457;SDS011;22480;50.546;12.292;2023-05-07T09:59:28;8.85;;;7.75;;
36457;SDS011;22480;50.546;12.292;2023-05-07T10:01:59;9.15;;;7.82;;
36457;SDS011;22480;50.546;12.292;2023-05-07T10:04:26;10.38;;;7.68;;
36457;SDS011;22480;50.546;12.292;2023-05-07T10:06:52;9.10;;;7.97;;
36457;SDS011;22480;50.546;12.292;2023-05-07T10:09:21;9.18;;;7.53;;
36457;SDS011;22480;50.546;12.292;2023-05-07T10:11:48;8.18;;;7.25;;
36457;SDS011;22480;50.546;12.292;2023-05-07T10:14:15;12.15;;;6.72;;
36457;SDS011;22480;50.546;12.292;2023-05-07T10:16:42;9.30;;;7.72;;
36457;SDS011;22480;50.546;12.292;2023-05-07T10:19:12;8.75;;;6.72;;
36457;SDS011;22480;50.546;12.292;2023-05-07T10:21:55;10.88;;;9.60;;
36457;SDS011;22480;50.546;12.292;2023-05-07T10:24:35;8.73;;;7.55;;
36457;SDS011;22480;50.546;12.292;2023-05-07T10:27:05;9.85;;;7.57;;
36457;SDS011;22480;50.546;12.292;2023-05-07T10:35:13;7.65;;;6.75;;
36457;SDS011;22480;50.546;12.292;2023-05-07T10:37:45;7.85;;;7.03;;
36457;SDS011;22480;50.546;12.292;2023-05-07T10:40:12;8.57;;;7.00;;
36457;SDS011;22480;50.546;12.292;2023-05-07T10:42:39;10.85;;;6.22;;
36457;SDS011;22480;50.546;12.292;2023-05-07T10:50:36;7.38;;;6.30;;
36457;SDS011;22480;50.546;12.292;2023-05-07T10:53:23;7.30;;;6.57;;
36457;SDS011;22480;50.546;12.292;2023-05-07T10:58:49;7.30;;;6.38;;
36457;SDS011;22480;50.546;12.292;2023-05-07T11:01:48;7.10;;;6.30;;
36457;SDS011;22480;50.546;12.292;2023-05-07T11:04:15;7.25;;;6.43;;
36457;SDS011;22480;50.546;12.292;2023-05-07T11:15:07;7.03;;;6.32;;
36457;SDS011;22480;50.546;12.292;2023-05-07T11:17:54;7.28;;;6.57;;
36457;SDS011;22480;50.546;12.292;2023-05-07T11:26:07;9.20;;;6.32;;
36457;SDS011;22480;50.546;12.292;2023-05-07T11:28:40;6.97;;;6.20;;
36457;SDS011;22480;50.546;12.292;2023-05-07T11:31:08;7.65;;;6.53;;
36457;SDS011;22480;50.546;12.292;2023-05-07T11:33:35;7.00;;;6.05;;
36457;SDS011;22480;50.546;12.292;2023-05-07T11:36:05;6.50;;;5.90;;
36457;SDS011;22480;50.546;12.292;2023-05-07T11:38:37;6.97;;;6.18;;
36457;SDS011;22480;50.546;12.292;2023-05-07T11:41:03;9.30;;;5.80;;
36457;SDS011;22480;50.546;12.292;2023-05-07T11:43:33;6.50;;;5.78;;
36457;SDS011;22480;50.546;12.292;2023-05-07T11:46:10;5.90;;;5.30;;
36457;SDS011;22480;50.546;12.292;2023-05-07T11:48:37;7.22;;;5.65;;
36457;SDS011;22480;50.546;12.292;2023-05-07T11:51:04;5.38;;;4.63;;
36457;SDS011;22480;50.546;12.292;2023-05-07T11:53:38;6.40;;;4.60;;
36457;SDS011;22480;50.546;12.292;2023-05-07T11:58:34;6.05;;;4.50;;
36457;SDS011;22480;50.546;12.292;2023-05-07T12:01:00;6.25;;;5.20;;
36457;SDS011;22480;50.546;12.292;2023-05-07T12:03:26;4.97;;;4.45;;
36457;SDS011;22480;50.546;12.292;2023-05-07T12:05:52;4.72;;;4.22;;
36457;SDS011;22480;50.546;12.292;2023-05-07T12:08:18;5.57;;;5.07;;
36457;SDS011;22480;50.546;12.292;2023-05-07T12:10:45;4.63;;;4.22;;
36457;SDS011;22480;50.546;12.292;2023-05-07T12:15:41;6.55;;;4.75;;
36457;SDS011;22480;50.546;12.292;2023-05-07T12:18:08;5.07;;;4.57;;
36457;SDS011;22480;50.546;12.292;2023-05-07T12:20:34;5.28;;;4.78;;
36457;SDS011;22480;50.546;12.292;2023-05-07T12:23:01;6.13;;;4.63;;
36457;SDS011;22480;50.546;12.292;2023-05-07T12:25:45;6.72;;;4.90;;
36457;SDS011;22480;50.546;12.292;2023-05-07T12:28:14;6.35;;;5.45;;
36457;SDS011;22480;50.546;12.292;2023-05-07T12:30:42;6.07;;;5.43;;
36457;SDS011;22480;50.546;12.292;2023-05-07T12:33:09;5.75;;;5.03;;
36457;SDS011;22480;50.546;12.292;2023-05-07T12:35:41;5.65;;;4.85;;
36457;SDS011;22480;50.546;12.292;2023-05-07T12:38:11;5.75;;;5.20;;
36457;SDS011;22480;50.546;12.292;2023-05-07T12:40:41;5.32;;;4.82;;
36457;SDS011;22480;50.546;12.292;2023-05-07T12:45:42;4.97;;;4.47;;
36457;SDS011;22480;50.546;12.292;2023-05-07T12:48:09;5.55;;;5.05;;
36457;SDS011;22480;50.546;12.292;2023-05-07T12:50:35;5.75;;;5.15;;
36457;SDS011;22480;50.546;12.292;2023-05-07T12:53:05;5.70;;;4.57;;
36457;SDS011;22480;50.546;12.292;2023-05-07T12:55:39;4.68;;;4.28;;
36457;SDS011;22480;50.546;12.292;2023-05-07T12:58:14;4.35;;;3.95;;
36457;SDS011;22480;50.546;12.292;2023-05-07T13:00:44;4.78;;;4.30;;
36457;SDS011;22480;50.546;12.292;2023-05-07T13:03:16;4.50;;;4.10;;
36457;SDS011;22480;50.546;12.292;2023-05-07T13:05:50;4.22;;;3.92;;
36457;SDS011;22480;50.546;12.292;2023-05-07T13:11:02;3.85;;;3.55;;
36457;SDS011;22480;50.546;12.292;2023-05-07T13:13:32;5.82;;;4.15;;
36457;SDS011;22480;50.546;12.292;2023-05-07T13:18:25;4.45;;;4.05;;
36457;SDS011;22480;50.546;12.292;2023-05-07T13:20:52;4.03;;;3.63;;
36457;SDS011;22480;50.546;12.292;2023-05-07T13:23:18;4.20;;;3.80;;
36457;SDS011;22480;50.546;12.292;2023-05-07T13:25:44;3.88;;;3.58;;
36457;SDS011;22480;50.546;12.292;2023-05-07T13:28:10;4.13;;;3.72;;
36457;SDS011;22480;50.546;12.292;2023-05-07T13:30:36;4.40;;;3.50;;
36457;SDS011;22480;50.546;12.292;2023-05-07T13:33:02;4.03;;;3.60;;
36457;SDS011;22480;50.546;12.292;2023-05-07T13:35:27;4.68;;;4.28;;
36457;SDS011;22480;50.546;12.292;2023-05-07T13:37:53;5.78;;;4.30;;
36457;SDS011;22480;50.546;12.292;2023-05-07T13:40:20;6.30;;;5.47;;
36457;SDS011;22480;50.546;12.292;2023-05-07T13:42:47;7.18;;;5.13;;
36457;SDS011;22480;50.546;12.292;2023-05-07T13:45:13;5.65;;;4.70;;
36457;SDS011;22480;50.546;12.292;2023-05-07T13:47:42;5.75;;;5.13;;
36457;SDS011;22480;50.546;12.292;2023-05-07T13:50:08;5.00;;;4.60;;
36457;SDS011;22480;50.546;12.292;2023-05-07T13:52:34;5.38;;;4.88;;
36457;SDS011;22480;50.546;12.292;2023-05-07T13:55:00;5.65;;;5.15;;
36457;SDS011;22480;50.546;12.292;2023-05-07T13:57:26;6.00;;;5.22;;
36457;SDS011;22480;50.546;12.292;2023-05-07T13:59:51;6.13;;;4.60;;
36457;SDS011;22480;50.546;12.292;2023-05-07T14:02:17;6.45;;;5.35;;
36457;SDS011;22480;50.546;12.292;2023-05-07T14:04:43;5.55;;;4.65;;
36457;SDS011;22480;50.546;12.292;2023-05-07T14:07:10;4.28;;;3.88;;
36457;SDS011;22480;50.546;12.292;2023-05-07T14:09:36;5.40;;;4.90;;
36457;SDS011;22480;50.546;12.292;2023-05-07T14:12:01;6.18;;;4.13;;
36457;SDS011;22480;50.546;12.292;2023-05-07T14:14:27;5.15;;;4.65;;
36457;SDS011;22480;50.546;12.292;2023-05-07T14:16:53;5.60;;;5.10;;
36457;SDS011;22480;50.546;12.292;2023-05-07T14:19:18;5.68;;;5.18;;
36457;SDS011;22480;50.546;12.292;2023-05-07T14:21:44;5.68;;;5.07;;
36457;SDS011;22480;50.546;12.292;2023-05-07T14:24:10;4.50;;;4.10;;
36457;SDS011;22480;50.546;12.292;2023-05-07T14:26:35;4.63;;;4.22;;
36457;SDS011;22480;50.546;12.292;2023-05-07T14:29:02;4.68;;;4.28;;
36457;SDS011;22480;50.546;12.292;2023-05-07T14:31:28;7.53;;;5.10;;
36457;SDS011;22480;50.546;12.292;2023-05-07T14:33:54;5.45;;;4.95;;
36457;SDS011;22480;50.546;12.292;2023-05-07T14:36:20;6.00;;;4.97;;
36457;SDS011;22480;50.546;12.292;2023-05-07T14:38:47;5.05;;;4.65;;
36457;SDS011;22480;50.546;12.292;2023-05-07T14:41:13;7.65;;;5.05;;
36457;SDS011;22480;50.546;12.292;2023-05-07T14:43:40;5.72;;;4.93;;
36457;SDS011;22480;50.546;12.292;2023-05-07T14:46:06;4.43;;;4.03;;
36457;SDS011;22480;50.546;12.292;2023-05-07T14:48:32;6.63;;;4.95;;
36457;SDS011;22480;50.546;12.292;2023-05-07T14:50:57;4.97;;;4.32;;
36457;SDS011;22480;50.546;12.292;2023-05-07T14:53:23;4.88;;;4.38;;
36457;SDS011;22480;50.546;12.292;2023-05-07T14:55:49;5.30;;;4.80;;
36457;SDS011;22480;50.546;12.292;2023-05-07T14:58:14;5.50;;;4.43;;
36457;SDS011;22480;50.546;12.292;2023-05-07T15:00:40;5.00;;;4.50;;